sensor_id;sensor_type;location;lat;lon;timestamp;noise_LAeq;noise_LA_min;noise_LA_max;noise_LA01;noise_LA95
72978;Laerm;61167;55.884;37.524;2022-12-11T00:00:43;59.45;45.12;68.20;;
72978;Laerm;61167;55.884;37.524;2022-12-11T00:01:44;51.70;41.66;58.73;;
72978;Laerm;61167;55.884;37.524;2022-12-11T00:02:44;40.81;36.83;45.79;;
72978;Laerm;61167;55.884;37.524;2022-12-11T00:03:45;41.92;37.42;49.49;;
72978;Laerm;61167;55.884;37.524;2022-12-11T00:04:45;40.43;36.65;47.58;;
72978;Laerm;61167;55.884;37.524;2022-12-11T00:05:46;40.18;36.54;51.24;;
72978;Laerm;61167;55.884;37.524;2022-12-11T00:06:46;40.34;36.33;47.00;;
72978;Laerm;61167;55.884;37.524;2022-12-11T00:07:49;42.10;36.94;50.50;;
72978;Laerm;61167;55.884;37.524;2022-12-11T00:08:50;42.86;38.75;49.86;;
72978;Laerm;61167;55.884;37.524;2022-12-11T00:09:51;44.90;39.14;52.06;;
72978;Laerm;61167;55.884;37.524;2022-12-11T00:10:52;44.90;38.33;53.59;;
72978;Laerm;61167;55.884;37.524;2022-12-11T00:11:52;45.52;38.83;52.62;;
72978;Laerm;61167;55.884;37.524;2022-12-11T00:12:52;50.16;39.30;60.00;;
72978;Laerm;61167;55.884;37.524;2022-12-11T00:13:52;41.27;37.19;48.52;;
72978;Laerm;61167;55.884;37.524;2022-12-11T00:14:53;54.19;40.50;61.96;;
72978;Laerm;61167;55.884;37.524;2022-12-11T00:15:53;56.07;46.96;61.67;;
72978;Laerm;61167;55.884;37.524;2022-12-11T00:16:54;57.70;50.24;63.36;;
72978;Laerm;61167;55.884;37.524;2022-12-11T00:17:54;49.16;40.74;60.06;;
72978;Laerm;61167;55.884;37.524;2022-12-11T00:18:55;46.39;40.06;51.99;;
72978;Laerm;61167;55.884;37.524;2022-12-11T00:19:55;44.36;40.35;48.17;;
72978;Laerm;61167;55.884;37.524;2022-12-11T00:20:58;41.23;38.60;47.98;;
72978;Laerm;61167;55.884;37.524;2022-12-11T00:21:59;39.84;35.73;50.86;;
72978;Laerm;61167;55.884;37.524;2022-12-11T00:22:59;39.16;35.62;48.04;;
72978;Laerm;61167;55.884;37.524;2022-12-11T00:23:59;40.37;36.68;60.03;;
72978;Laerm;61167;55.884;37.524;2022-12-11T00:25:00;41.97;37.63;54.31;;
72978;Laerm;61167;55.884;37.524;2022-12-11T00:26:03;39.49;36.52;43.65;;
72978;Laerm;61167;55.884;37.524;2022-12-11T00:27:03;40.52;35.71;47.58;;
72978;Laerm;61167;55.884;37.524;2022-12-11T00:28:04;39.03;35.82;51.95;;
72978;Laerm;61167;55.884;37.524;2022-12-11T00:29:04;38.91;35.61;50.45;;
72978;Laerm;61167;55.884;37.524;2022-12-11T00:30:05;39.69;35.92;44.29;;
72978;Laerm;61167;55.884;37.524;2022-12-11T00:31:06;38.43;35.69;41.57;;
72978;Laerm;61167;55.884;37.524;2022-12-11T00:32:07;38.10;35.50;41.03;;
72978;Laerm;61167;55.884;37.524;2022-12-11T00:33:08;38.63;35.26;41.06;;
72978;Laerm;61167;55.884;37.524;2022-12-11T00:34:09;38.60;35.50;41.36;;
72978;Laerm;61167;55.884;37.524;2022-12-11T00:35:11;38.40;35.80;43.22;;
72978;Laerm;61167;55.884;37.524;2022-12-11T00:36:18;38.58;34.94;41.75;;
72978;Laerm;61167;55.884;37.524;2022-12-11T00:37:19;39.10;36.06;45.56;;
72978;Laerm;61167;55.884;37.524;2022-12-11T00:38:20;39.89;37.02;44.20;;
72978;Laerm;61167;55.884;37.524;2022-12-11T00:39:21;39.72;36.40;54.13;;
72978;Laerm;61167;55.884;37.524;2022-12-11T00:40:21;41.20;36.93;47.28;;
72978;Laerm;61167;55.884;37.524;2022-12-11T00:41:21;39.40;35.99;52.27;;
72978;Laerm;61167;55.884;37.524;2022-12-11T00:42:22;39.83;36.43;49.52;;
72978;Laerm;61167;55.884;37.524;2022-12-11T00:43:22;40.42;37.03;44.37;;
72978;Laerm;61167;55.884;37.524;2022-12-11T00:44:22;40.32;36.60;44.85;;
72978;Laerm;61167;55.884;37.524;2022-12-11T00:45:23;38.94;35.94;44.28;;
72978;Laerm;61167;55.884;37.524;2022-12-11T00:46:23;38.94;35.31;45.45;;
72978;Laerm;61167;55.884;37.524;2022-12-11T00:47:24;39.39;36.06;43.40;;
72978;Laerm;61167;55.884;37.524;2022-12-11T00:48:24;38.91;35.65;51.96;;
72978;Laerm;61167;55.884;37.524;2022-12-11T00:49:24;38.63;35.72;48.97;;
72978;Laerm;61167;55.884;37.524;2022-12-11T00:50:25;38.23;35.23;44.64;;
72978;Laerm;61167;55.884;37.524;2022-12-11T00:51:25;38.45;35.26;50.64;;
72978;Laerm;61167;55.884;37.524;2022-12-11T00:52:25;39.91;35.45;47.58;;
72978;Laerm;61167;55.884;37.524;2022-12-11T00:53:25;44.04;36.32;52.82;;
72978;Laerm;61167;55.884;37.524;2022-12-11T00:54:26;41.63;36.78;50.38;;
72978;Laerm;61167;55.884;37.524;2022-12-11T00:55:26;43.11;37.64;49.33;;
72978;Laerm;61167;55.884;37.524;2022-12-11T00:56:29;39.06;35.62;42.21;;
72978;Laerm;61167;55.884;37.524;2022-12-11T00:57:29;39.37;36.09;45.40;;
72978;Laerm;61167;55.884;37.524;2022-12-11T00:58:30;39.33;36.05;43.42;;
72978;Laerm;61167;55.884;37.524;2022-12-11T00:59:30;39.55;36.17;54.34;;
72978;Laerm;61167;55.884;37.524;2022-12-11T01:00:30;40.93;36.65;55.20;;
72978;Laerm;61167;55.884;37.524;2022-12-11T01:01:31;43.88;37.06;53.17;;
72978;Laerm;61167;55.884;37.524;2022-12-11T01:02:32;44.62;38.42;56.42;;
72978;Laerm;61167;55.884;37.524;2022-12-11T01:03:32;40.17;36.63;44.00;;
72978;Laerm;61167;55.884;37.524;2022-12-11T01:04:34;39.93;37.31;43.28;;
72978;Laerm;61167;55.884;37.524;2022-12-11T01:05:34;39.38;36.29;42.26;;
72978;Laerm;61167;55.884;37.524;2022-12-11T01:06:35;41.18;37.15;54.05;;
72978;Laerm;61167;55.884;37.524;2022-12-11T01:07:35;39.90;36.63;56.64;;
72978;Laerm;61167;55.884;37.524;2022-12-11T01:08:35;41.21;36.36;48.22;;
72978;Laerm;61167;55.884;37.524;2022-12-11T01:09:36;39.08;36.18;43.72;;
72978;Laerm;61167;55.884;37.524;2022-12-11T01:11:04;39.08;35.62;42.64;;
72978;Laerm;61167;55.884;37.524;2022-12-11T01:12:05;46.72;36.93;58.80;;
72978;Laerm;61167;55.884;37.524;2022-12-11T01:13:06;38.69;36.10;46.10;;
72978;Laerm;61167;55.884;37.524;2022-12-11T01:14:06;39.12;35.81;48.92;;
72978;Laerm;61167;55.884;37.524;2022-12-11T01:15:06;39.33;36.22;42.40;;
72978;Laerm;61167;55.884;37.524;2022-12-11T01:16:16;40.02;36.32;43.61;;
72978;Laerm;61167;55.884;37.524;2022-12-11T01:17:17;39.88;36.64;46.35;;
72978;Laerm;61167;55.884;37.524;2022-12-11T01:18:18;39.78;36.69;43.69;;
72978;Laerm;61167;55.884;37.524;2022-12-11T01:19:18;39.68;36.17;44.02;;
72978;Laerm;61167;55.884;37.524;2022-12-11T01:20:19;39.19;36.51;43.14;;
72978;Laerm;61167;55.884;37.524;2022-12-11T01:21:20;40.18;36.94;49.89;;
72978;Laerm;61167;55.884;37.524;2022-12-11T01:22:20;42.89;37.77;49.65;;
72978;Laerm;61167;55.884;37.524;2022-12-11T01:23:20;42.15;38.07;63.98;;
72978;Laerm;61167;55.884;37.524;2022-12-11T01:24:21;40.44;36.79;50.32;;
72978;Laerm;61167;55.884;37.524;2022-12-11T01:25:22;41.12;37.62;47.47;;
72978;Laerm;61167;55.884;37.524;2022-12-11T01:26:23;40.74;37.65;45.25;;
72978;Laerm;61167;55.884;37.524;2022-12-11T01:27:23;40.86;37.45;44.65;;
72978;Laerm;61167;55.884;37.524;2022-12-11T01:28:24;40.62;36.52;48.06;;
72978;Laerm;61167;55.884;37.524;2022-12-11T01:29:24;41.16;37.07;53.38;;
72978;Laerm;61167;55.884;37.524;2022-12-11T01:30:24;40.95;37.60;45.47;;
72978;Laerm;61167;55.884;37.524;2022-12-11T01:31:25;41.99;37.46;47.33;;
72978;Laerm;61167;55.884;37.524;2022-12-11T01:32:26;40.88;37.71;53.00;;
72978;Laerm;61167;55.884;37.524;2022-12-11T01:33:26;39.80;36.99;47.46;;
72978;Laerm;61167;55.884;37.524;2022-12-11T01:34:29;40.64;37.74;43.08;;
72978;Laerm;61167;55.884;37.524;2022-12-11T01:35:30;40.28;37.31;44.08;;
72978;Laerm;61167;55.884;37.524;2022-12-11T01:36:31;41.87;38.01;47.85;;
72978;Laerm;61167;55.884;37.524;2022-12-11T01:37:31;40.36;37.26;43.86;;
72978;Laerm;61167;55.884;37.524;2022-12-11T01:38:31;41.46;37.80;45.19;;
72978;Laerm;61167;55.884;37.524;2022-12-11T01:39:32;40.53;37.29;52.78;;
72978;Laerm;61167;55.884;37.524;2022-12-11T01:40:32;40.25;37.00;43.99;;
72978;Laerm;61167;55.884;37.524;2022-12-11T01:41:32;41.08;37.61;48.66;;
72978;Laerm;61167;55.884;37.524;2022-12-11T01:42:33;40.00;36.38;50.15;;
72978;Laerm;61167;55.884;37.524;2022-12-11T01:43:33;40.53;37.26;45.94;;
72978;Laerm;61167;55.884;37.524;2022-12-11T01:45:37;42.80;38.19;49.12;;
72978;Laerm;61167;55.884;37.524;2022-12-11T01:46:38;40.77;36.76;45.01;;
72978;Laerm;61167;55.884;37.524;2022-12-11T01:47:38;40.53;37.59;43.26;;
72978;Laerm;61167;55.884;37.524;2022-12-11T01:48:39;40.94;37.16;51.16;;
72978;Laerm;61167;55.884;37.524;2022-12-11T01:49:39;43.48;38.73;50.64;;
72978;Laerm;61167;55.884;37.524;2022-12-11T01:50:43;41.49;37.19;50.71;;
72978;Laerm;61167;55.884;37.524;2022-12-11T01:51:46;41.13;37.60;55.80;;
72978;Laerm;61167;55.884;37.524;2022-12-11T01:52:48;40.65;37.44;47.47;;
72978;Laerm;61167;55.884;37.524;2022-12-11T01:53:50;43.87;39.29;58.87;;
72978;Laerm;61167;55.884;37.524;2022-12-11T01:54:52;42.41;38.30;47.91;;
72978;Laerm;61167;55.884;37.524;2022-12-11T01:55:52;44.23;37.96;51.98;;
72978;Laerm;61167;55.884;37.524;2022-12-11T01:56:55;40.33;37.48;47.09;;
72978;Laerm;61167;55.884;37.524;2022-12-11T01:57:57;41.05;37.88;50.97;;
72978;Laerm;61167;55.884;37.524;2022-12-11T01:58:59;40.86;37.51;45.35;;
72978;Laerm;61167;55.884;37.524;2022-12-11T02:00:02;41.61;37.63;48.45;;
72978;Laerm;61167;55.884;37.524;2022-12-11T02:01:04;40.66;36.56;46.73;;
72978;Laerm;61167;55.884;37.524;2022-12-11T02:02:09;41.44;37.77;46.95;;
72978;Laerm;61167;55.884;37.524;2022-12-11T02:03:12;43.65;39.18;51.84;;
72978;Laerm;61167;55.884;37.524;2022-12-11T02:04:13;42.52;39.20;46.70;;
72978;Laerm;61167;55.884;37.524;2022-12-11T02:05:14;44.12;38.67;56.02;;
72978;Laerm;61167;55.884;37.524;2022-12-11T02:07:51;41.96;38.20;53.83;;
72978;Laerm;61167;55.884;37.524;2022-12-11T02:08:53;40.41;37.65;46.87;;
72978;Laerm;61167;55.884;37.524;2022-12-11T02:09:53;40.97;37.72;46.19;;
72978;Laerm;61167;55.884;37.524;2022-12-11T02:13:18;40.64;36.98;45.29;;
72978;Laerm;61167;55.884;37.524;2022-12-11T02:15:47;40.37;36.93;44.75;;
72978;Laerm;61167;55.884;37.524;2022-12-11T02:16:54;40.58;37.56;45.09;;
72978;Laerm;61167;55.884;37.524;2022-12-11T02:21:56;55.93;48.00;62.58;;
72978;Laerm;61167;55.884;37.524;2022-12-11T02:25:30;53.57;49.19;59.78;;
72978;Laerm;61167;55.884;37.524;2022-12-11T02:27:43;65.36;47.22;71.14;;
72978;Laerm;61167;55.884;37.524;2022-12-11T02:29:28;52.60;43.63;58.26;;
72978;Laerm;61167;55.884;37.524;2022-12-11T02:30:12;51.53;40.18;60.58;;
72978;Laerm;61167;55.884;37.524;2022-12-11T02:32:24;42.44;39.40;47.56;;
72978;Laerm;61167;55.884;37.524;2022-12-11T02:33:29;42.38;39.21;51.30;;
72978;Laerm;61167;55.884;37.524;2022-12-11T02:34:34;44.27;39.73;55.27;;
72978;Laerm;61167;55.884;37.524;2022-12-11T02:35:40;44.03;40.63;56.59;;
72978;Laerm;61167;55.884;37.524;2022-12-11T02:36:45;44.69;42.18;49.37;;
72978;Laerm;61167;55.884;37.524;2022-12-11T02:37:48;57.46;43.48;66.68;;
72978;Laerm;61167;55.884;37.524;2022-12-11T02:38:51;46.12;39.95;56.71;;
72978;Laerm;61167;55.884;37.524;2022-12-11T02:39:53;42.28;39.27;51.04;;
72978;Laerm;61167;55.884;37.524;2022-12-11T02:40:54;42.48;37.38;55.78;;
72978;Laerm;61167;55.884;37.524;2022-12-11T02:41:56;42.54;39.10;49.29;;
72978;Laerm;61167;55.884;37.524;2022-12-11T02:42:58;41.96;38.38;57.95;;
72978;Laerm;61167;55.884;37.524;2022-12-11T02:43:59;44.50;38.73;59.41;;
72978;Laerm;61167;55.884;37.524;2022-12-11T02:45:01;44.85;39.44;58.92;;
72978;Laerm;61167;55.884;37.524;2022-12-11T02:46:04;44.59;39.57;56.94;;
72978;Laerm;61167;55.884;37.524;2022-12-11T02:47:07;44.72;39.45;58.10;;
72978;Laerm;61167;55.884;37.524;2022-12-11T02:48:09;44.72;38.12;61.70;;
72978;Laerm;61167;55.884;37.524;2022-12-11T02:49:11;42.61;39.31;50.74;;
72978;Laerm;61167;55.884;37.524;2022-12-11T02:50:13;42.43;38.52;54.76;;
72978;Laerm;61167;55.884;37.524;2022-12-11T02:51:15;43.77;38.50;54.88;;
72978;Laerm;61167;55.884;37.524;2022-12-11T02:52:17;43.08;38.41;58.35;;
72978;Laerm;61167;55.884;37.524;2022-12-11T02:53:20;44.38;38.75;58.52;;
72978;Laerm;61167;55.884;37.524;2022-12-11T02:54:23;44.75;38.87;60.33;;
72978;Laerm;61167;55.884;37.524;2022-12-11T02:55:25;43.77;38.01;63.07;;
72978;Laerm;61167;55.884;37.524;2022-12-11T02:56:32;43.49;38.45;58.11;;
72978;Laerm;61167;55.884;37.524;2022-12-11T02:59:03;43.88;38.68;60.75;;
72978;Laerm;61167;55.884;37.524;2022-12-11T03:00:06;42.95;38.48;56.21;;
72978;Laerm;61167;55.884;37.524;2022-12-11T03:01:07;43.31;39.08;53.45;;
72978;Laerm;61167;55.884;37.524;2022-12-11T03:02:07;43.72;37.97;55.82;;
72978;Laerm;61167;55.884;37.524;2022-12-11T03:03:08;41.93;38.16;62.18;;
72978;Laerm;61167;55.884;37.524;2022-12-11T03:04:09;40.61;37.29;48.35;;
72978;Laerm;61167;55.884;37.524;2022-12-11T03:05:09;41.08;37.89;45.42;;
72978;Laerm;61167;55.884;37.524;2022-12-11T03:06:10;42.53;38.94;48.73;;
72978;Laerm;61167;55.884;37.524;2022-12-11T03:07:15;42.53;38.19;50.28;;
72978;Laerm;61167;55.884;37.524;2022-12-11T03:08:16;44.60;38.74;52.24;;
72978;Laerm;61167;55.884;37.524;2022-12-11T03:09:17;42.96;38.10;62.05;;
72978;Laerm;61167;55.884;37.524;2022-12-11T03:10:18;42.07;39.28;50.68;;
72978;Laerm;61167;55.884;37.524;2022-12-11T03:11:18;44.81;40.68;50.35;;
72978;Laerm;61167;55.884;37.524;2022-12-11T03:12:20;44.03;39.71;51.23;;
72978;Laerm;61167;55.884;37.524;2022-12-11T03:13:23;42.58;39.24;48.43;;
72978;Laerm;61167;55.884;37.524;2022-12-11T03:14:23;42.18;38.58;49.22;;
72978;Laerm;61167;55.884;37.524;2022-12-11T03:15:28;41.59;38.27;45.13;;
72978;Laerm;61167;55.884;37.524;2022-12-11T03:16:40;42.49;39.49;49.89;;
72978;Laerm;61167;55.884;37.524;2022-12-11T03:19:57;42.02;37.09;50.22;;
72978;Laerm;61167;55.884;37.524;2022-12-11T03:24:40;42.28;38.61;52.61;;
72978;Laerm;61167;55.884;37.524;2022-12-11T03:25:50;43.00;39.11;53.00;;
72978;Laerm;61167;55.884;37.524;2022-12-11T03:26:57;42.52;38.71;57.38;;
72978;Laerm;61167;55.884;37.524;2022-12-11T03:28:12;42.25;38.27;51.81;;
72978;Laerm;61167;55.884;37.524;2022-12-11T03:29:19;41.97;38.44;50.42;;
72978;Laerm;61167;55.884;37.524;2022-12-11T03:30:20;42.21;38.78;52.64;;
72978;Laerm;61167;55.884;37.524;2022-12-11T03:31:26;41.64;38.18;45.19;;
72978;Laerm;61167;55.884;37.524;2022-12-11T03:32:30;42.46;38.55;58.15;;
72978;Laerm;61167;55.884;37.524;2022-12-11T03:33:42;43.82;38.87;55.04;;
72978;Laerm;61167;55.884;37.524;2022-12-11T03:35:49;42.97;39.33;48.16;;
72978;Laerm;61167;55.884;37.524;2022-12-11T03:36:50;41.68;38.62;51.43;;
72978;Laerm;61167;55.884;37.524;2022-12-11T03:37:52;42.72;38.88;49.86;;
72978;Laerm;61167;55.884;37.524;2022-12-11T03:38:55;44.63;40.96;60.36;;
72978;Laerm;61167;55.884;37.524;2022-12-11T03:39:58;42.81;38.98;51.97;;
72978;Laerm;61167;55.884;37.524;2022-12-11T03:41:01;42.53;39.89;47.60;;
72978;Laerm;61167;55.884;37.524;2022-12-11T03:42:04;44.48;40.38;55.33;;
72978;Laerm;61167;55.884;37.524;2022-12-11T03:43:05;46.12;40.32;55.29;;
72978;Laerm;61167;55.884;37.524;2022-12-11T03:44:06;43.79;39.66;51.24;;
72978;Laerm;61167;55.884;37.524;2022-12-11T03:45:07;42.90;39.42;50.02;;
72978;Laerm;61167;55.884;37.524;2022-12-11T03:46:07;42.91;39.20;50.42;;
72978;Laerm;61167;55.884;37.524;2022-12-11T03:47:09;42.54;38.98;52.58;;
72978;Laerm;61167;55.884;37.524;2022-12-11T03:48:09;42.53;38.66;61.70;;
72978;Laerm;61167;55.884;37.524;2022-12-11T03:49:19;42.56;39.34;54.07;;
72978;Laerm;61167;55.884;37.524;2022-12-11T03:50:20;41.87;38.51;50.23;;
72978;Laerm;61167;55.884;37.524;2022-12-11T03:51:21;46.19;39.32;58.98;;
72978;Laerm;61167;55.884;37.524;2022-12-11T03:52:23;42.42;39.05;51.99;;
72978;Laerm;61167;55.884;37.524;2022-12-11T03:53:26;42.74;39.36;55.76;;
72978;Laerm;61167;55.884;37.524;2022-12-11T03:54:27;44.48;39.59;50.42;;
72978;Laerm;61167;55.884;37.524;2022-12-11T03:55:28;44.34;41.79;50.59;;
72978;Laerm;61167;55.884;37.524;2022-12-11T03:56:30;44.65;41.11;66.23;;
72978;Laerm;61167;55.884;37.524;2022-12-11T03:57:33;44.97;41.77;53.34;;
72978;Laerm;61167;55.884;37.524;2022-12-11T03:58:34;44.63;41.20;50.80;;
72978;Laerm;61167;55.884;37.524;2022-12-11T03:59:34;44.19;41.44;57.31;;
72978;Laerm;61167;55.884;37.524;2022-12-11T04:00:35;46.94;41.63;54.65;;
72978;Laerm;61167;55.884;37.524;2022-12-11T04:01:37;45.14;41.36;62.63;;
72978;Laerm;61167;55.884;37.524;2022-12-11T04:02:37;45.40;41.87;54.85;;
72978;Laerm;61167;55.884;37.524;2022-12-11T04:03:38;44.98;41.63;58.91;;
72978;Laerm;61167;55.884;37.524;2022-12-11T04:04:39;45.98;41.49;66.93;;
72978;Laerm;61167;55.884;37.524;2022-12-11T04:05:40;46.95;40.01;57.07;;
72978;Laerm;61167;55.884;37.524;2022-12-11T04:06:40;43.74;40.05;58.93;;
72978;Laerm;61167;55.884;37.524;2022-12-11T04:07:41;43.11;38.83;63.48;;
72978;Laerm;61167;55.884;37.524;2022-12-11T04:08:41;46.14;40.70;60.23;;
72978;Laerm;61167;55.884;37.524;2022-12-11T04:09:41;50.38;39.03;63.57;;
72978;Laerm;61167;55.884;37.524;2022-12-11T04:10:42;51.69;39.50;65.16;;
72978;Laerm;61167;55.884;37.524;2022-12-11T04:11:42;51.41;39.77;63.50;;
72978;Laerm;61167;55.884;37.524;2022-12-11T04:12:42;50.99;40.13;63.80;;
72978;Laerm;61167;55.884;37.524;2022-12-11T04:13:43;50.26;40.24;66.95;;
72978;Laerm;61167;55.884;37.524;2022-12-11T04:14:43;43.02;39.35;62.73;;
72978;Laerm;61167;55.884;37.524;2022-12-11T04:16:02;48.93;39.01;63.84;;
72978;Laerm;61167;55.884;37.524;2022-12-11T04:17:02;51.93;39.96;68.03;;
72978;Laerm;61167;55.884;37.524;2022-12-11T04:18:03;49.58;40.51;65.76;;
72978;Laerm;61167;55.884;37.524;2022-12-11T04:19:22;49.14;39.83;64.16;;
72978;Laerm;61167;55.884;37.524;2022-12-11T04:20:41;46.36;39.62;61.15;;
72978;Laerm;61167;55.884;37.524;2022-12-11T04:21:59;46.97;39.63;61.61;;
72978;Laerm;61167;55.884;37.524;2022-12-11T04:23:18;44.07;39.76;63.77;;
72978;Laerm;61167;55.884;37.524;2022-12-11T04:24:37;44.31;40.19;56.26;;
72978;Laerm;61167;55.884;37.524;2022-12-11T04:25:38;44.07;39.97;58.58;;
72978;Laerm;61167;55.884;37.524;2022-12-11T04:26:38;53.53;40.27;65.70;;
72978;Laerm;61167;55.884;37.524;2022-12-11T04:27:38;48.17;41.79;64.83;;
72978;Laerm;61167;55.884;37.524;2022-12-11T04:28:48;46.76;40.39;65.22;;
72978;Laerm;61167;55.884;37.524;2022-12-11T04:29:48;46.82;41.69;53.88;;
72978;Laerm;61167;55.884;37.524;2022-12-11T04:30:48;55.76;44.59;64.14;;
72978;Laerm;61167;55.884;37.524;2022-12-11T04:31:49;46.72;42.06;54.48;;
72978;Laerm;61167;55.884;37.524;2022-12-11T04:32:50;45.33;41.09;59.67;;
72978;Laerm;61167;55.884;37.524;2022-12-11T04:33:51;46.57;41.17;71.49;;
72978;Laerm;61167;55.884;37.524;2022-12-11T04:34:52;48.32;41.01;66.26;;
72978;Laerm;61167;55.884;37.524;2022-12-11T04:35:52;50.15;40.93;66.50;;
72978;Laerm;61167;55.884;37.524;2022-12-11T04:36:53;50.73;41.82;63.53;;
72978;Laerm;61167;55.884;37.524;2022-12-11T04:37:54;49.56;41.18;64.61;;
72978;Laerm;61167;55.884;37.524;2022-12-11T04:38:54;54.60;41.39;70.61;;
72978;Laerm;61167;55.884;37.524;2022-12-11T04:39:55;51.03;40.37;66.85;;
72978;Laerm;61167;55.884;37.524;2022-12-11T04:40:59;47.35;40.68;60.98;;
72978;Laerm;61167;55.884;37.524;2022-12-11T04:42:00;51.50;41.77;66.03;;
72978;Laerm;61167;55.884;37.524;2022-12-11T04:43:00;52.03;40.78;70.35;;
72978;Laerm;61167;55.884;37.524;2022-12-11T04:44:00;51.40;40.85;72.13;;
72978;Laerm;61167;55.884;37.524;2022-12-11T04:45:01;52.27;41.85;66.76;;
72978;Laerm;61167;55.884;37.524;2022-12-11T04:46:02;50.65;41.10;62.79;;
72978;Laerm;61167;55.884;37.524;2022-12-11T04:47:02;52.21;41.21;63.69;;
72978;Laerm;61167;55.884;37.524;2022-12-11T04:48:03;52.50;41.22;65.77;;
72978;Laerm;61167;55.884;37.524;2022-12-11T04:49:03;53.53;41.49;66.14;;
72978;Laerm;61167;55.884;37.524;2022-12-11T04:50:04;52.22;41.21;71.01;;
72978;Laerm;61167;55.884;37.524;2022-12-11T04:51:05;48.19;41.24;62.00;;
72978;Laerm;61167;55.884;37.524;2022-12-11T04:52:06;48.49;40.98;60.59;;
72978;Laerm;61167;55.884;37.524;2022-12-11T04:53:06;64.87;46.85;72.30;;
72978;Laerm;61167;55.884;37.524;2022-12-11T04:54:06;59.95;47.36;70.85;;
72978;Laerm;61167;55.884;37.524;2022-12-11T04:55:07;56.26;43.31;65.80;;
72978;Laerm;61167;55.884;37.524;2022-12-11T04:56:08;57.79;44.40;69.26;;
72978;Laerm;61167;55.884;37.524;2022-12-11T04:57:09;59.78;45.53;67.77;;
72978;Laerm;61167;55.884;37.524;2022-12-11T04:58:09;47.97;40.79;61.78;;
72978;Laerm;61167;55.884;37.524;2022-12-11T04:59:09;52.80;40.95;68.02;;
72978;Laerm;61167;55.884;37.524;2022-12-11T05:00:10;50.92;40.91;62.79;;
72978;Laerm;61167;55.884;37.524;2022-12-11T05:01:15;54.72;40.19;75.12;;
72978;Laerm;61167;55.884;37.524;2022-12-11T05:02:15;50.33;40.01;65.25;;
72978;Laerm;61167;55.884;37.524;2022-12-11T05:03:16;49.25;40.93;64.71;;
72978;Laerm;61167;55.884;37.524;2022-12-11T05:04:16;48.92;41.12;62.37;;
72978;Laerm;61167;55.884;37.524;2022-12-11T05:05:16;49.34;40.08;65.59;;
72978;Laerm;61167;55.884;37.524;2022-12-11T05:06:17;49.91;42.37;63.47;;
72978;Laerm;61167;55.884;37.524;2022-12-11T05:07:17;48.29;40.97;63.16;;
72978;Laerm;61167;55.884;37.524;2022-12-11T05:08:18;47.87;40.44;64.70;;
72978;Laerm;61167;55.884;37.524;2022-12-11T05:09:19;48.66;41.20;64.26;;
72978;Laerm;61167;55.884;37.524;2022-12-11T05:10:20;49.37;40.70;65.58;;
72978;Laerm;61167;55.884;37.524;2022-12-11T05:11:20;49.98;40.80;63.40;;
72978;Laerm;61167;55.884;37.524;2022-12-11T05:12:21;49.07;40.04;65.47;;
72978;Laerm;61167;55.884;37.524;2022-12-11T05:13:21;47.66;40.74;65.11;;
72978;Laerm;61167;55.884;37.524;2022-12-11T05:14:22;48.55;42.39;65.36;;
72978;Laerm;61167;55.884;37.524;2022-12-11T05:15:22;50.81;40.97;69.18;;
72978;Laerm;61167;55.884;37.524;2022-12-11T05:16:23;50.90;41.04;66.85;;
72978;Laerm;61167;55.884;37.524;2022-12-11T05:17:23;50.27;41.10;66.75;;
72978;Laerm;61167;55.884;37.524;2022-12-11T05:18:23;53.18;41.31;67.57;;
72978;Laerm;61167;55.884;37.524;2022-12-11T05:19:24;51.09;41.59;65.30;;
72978;Laerm;61167;55.884;37.524;2022-12-11T05:20:25;52.22;41.61;66.95;;
72978;Laerm;61167;55.884;37.524;2022-12-11T05:21:26;51.40;41.88;64.54;;
72978;Laerm;61167;55.884;37.524;2022-12-11T05:22:26;52.29;42.88;66.54;;
72978;Laerm;61167;55.884;37.524;2022-12-11T05:23:29;53.21;42.07;69.50;;
72978;Laerm;61167;55.884;37.524;2022-12-11T05:24:29;49.10;42.44;61.24;;
72978;Laerm;61167;55.884;37.524;2022-12-11T05:25:30;49.78;42.63;64.54;;
72978;Laerm;61167;55.884;37.524;2022-12-11T05:26:30;51.43;42.74;64.05;;
72978;Laerm;61167;55.884;37.524;2022-12-11T05:27:30;50.67;42.20;61.88;;
72978;Laerm;61167;55.884;37.524;2022-12-11T05:28:32;51.79;43.50;64.29;;
72978;Laerm;61167;55.884;37.524;2022-12-11T05:29:32;52.75;42.83;67.72;;
72978;Laerm;61167;55.884;37.524;2022-12-11T05:30:34;50.60;43.48;65.63;;
72978;Laerm;61167;55.884;37.524;2022-12-11T05:31:34;49.14;42.64;60.60;;
72978;Laerm;61167;55.884;37.524;2022-12-11T05:32:35;47.52;42.10;59.58;;
72978;Laerm;61167;55.884;37.524;2022-12-11T05:33:35;47.43;41.57;58.45;;
72978;Laerm;61167;55.884;37.524;2022-12-11T05:34:35;46.80;42.97;57.68;;
72978;Laerm;61167;55.884;37.524;2022-12-11T05:35:36;48.56;42.08;59.67;;
72978;Laerm;61167;55.884;37.524;2022-12-11T05:36:36;51.54;43.02;62.77;;
72978;Laerm;61167;55.884;37.524;2022-12-11T05:37:36;53.17;43.17;65.79;;
72978;Laerm;61167;55.884;37.524;2022-12-11T05:38:37;49.39;42.53;63.23;;
72978;Laerm;61167;55.884;37.524;2022-12-11T05:39:37;50.29;43.21;67.90;;
72978;Laerm;61167;55.884;37.524;2022-12-11T05:40:38;48.10;41.92;61.54;;
72978;Laerm;61167;55.884;37.524;2022-12-11T05:41:38;50.13;43.13;64.06;;
72978;Laerm;61167;55.884;37.524;2022-12-11T05:42:39;48.84;42.93;60.98;;
72978;Laerm;61167;55.884;37.524;2022-12-11T05:43:39;49.85;43.31;62.17;;
72978;Laerm;61167;55.884;37.524;2022-12-11T05:44:41;52.15;42.39;65.52;;
72978;Laerm;61167;55.884;37.524;2022-12-11T05:45:41;53.18;43.10;66.59;;
72978;Laerm;61167;55.884;37.524;2022-12-11T05:46:42;48.39;42.46;60.01;;
72978;Laerm;61167;55.884;37.524;2022-12-11T05:47:42;48.13;42.59;56.85;;
72978;Laerm;61167;55.884;37.524;2022-12-11T05:48:43;48.51;42.14;62.08;;
72978;Laerm;61167;55.884;37.524;2022-12-11T05:49:43;46.79;41.44;58.83;;
72978;Laerm;61167;55.884;37.524;2022-12-11T05:50:44;53.32;43.11;64.81;;
72978;Laerm;61167;55.884;37.524;2022-12-11T05:51:44;50.24;43.00;64.36;;
72978;Laerm;61167;55.884;37.524;2022-12-11T05:52:45;53.47;44.02;64.89;;
72978;Laerm;61167;55.884;37.524;2022-12-11T05:53:45;52.15;43.63;65.44;;
72978;Laerm;61167;55.884;37.524;2022-12-11T05:54:47;51.18;43.91;64.76;;
72978;Laerm;61167;55.884;37.524;2022-12-11T05:55:47;51.50;42.48;66.38;;
72978;Laerm;61167;55.884;37.524;2022-12-11T05:56:48;49.11;42.16;64.08;;
72978;Laerm;61167;55.884;37.524;2022-12-11T05:57:48;47.36;41.45;56.07;;
72978;Laerm;61167;55.884;37.524;2022-12-11T05:58:49;48.55;42.56;59.83;;
72978;Laerm;61167;55.884;37.524;2022-12-11T05:59:49;47.08;42.79;60.05;;
72978;Laerm;61167;55.884;37.524;2022-12-11T06:00:49;51.04;44.44;65.12;;
72978;Laerm;61167;55.884;37.524;2022-12-11T06:01:50;51.54;43.96;59.33;;
72978;Laerm;61167;55.884;37.524;2022-12-11T06:02:50;52.63;45.67;63.21;;
72978;Laerm;61167;55.884;37.524;2022-12-11T06:03:51;54.31;44.71;68.09;;
72978;Laerm;61167;55.884;37.524;2022-12-11T06:04:51;51.32;43.93;62.89;;